Time;durP1;ratioP1;P1;durP2;ratioP2;P2;SDS_P1;SDS_P2;PMS_P1;PMS_P2;Temp;Humidity;BMP_temperature;BMP_pressure;BME280_temperature;BME280_humidity;BME280_pressure;Samples;Min_cycle;Max_cycle;Signal;HPM_P1;HPM_P2
2022/02/01 00:00:23;;;;;;;33.33;22.15;;;;;;;0.29;88.53;97200.25;5004806;28;20073;-62
2022/02/01 00:02:43;;;;;;;31.73;20.98;;;;;;;0.12;88.66;97203.97;5000931;28;20126;-60
2022/02/01 00:05:22;;;;;;;30.20;21.35;;;;;;;0.01;89.49;97194.88;5002567;28;20041;-62
2022/02/01 00:36:34;;;;;;;32.78;22.88;;;;;;;0.16;88.59;97197.94;4987002;28;20034;-61
2022/02/01 00:39:04;;;;;;;29.45;21.50;;;;;;;0.19;88.74;97186.88;5001802;28;20073;-60
2022/02/01 00:41:32;;;;;;;30.75;21.05;;;;;;;0.29;88.66;97184.97;5002762;28;20042;-61
2022/02/01 00:43:59;;;;;;;28.02;20.08;;;;;;;0.41;88.44;97187.25;5003171;28;20041;-62
2022/02/01 00:46:25;;;;;;;30.92;21.23;;;;;;;0.50;88.43;97186.25;5002887;28;20149;-61
2022/02/01 00:48:50;;;;;;;30.20;20.55;;;;;;;0.51;87.70;97182.81;5003100;28;20038;-61
2022/02/01 00:51:17;;;;;;;31.88;20.88;;;;;;;0.54;87.57;97185.28;5002477;28;20219;-60
2022/02/01 00:53:43;;;;;;;32.95;22.80;;;;;;;0.39;87.30;97188.19;5003099;28;20031;-60
2022/02/01 00:56:10;;;;;;;33.58;23.00;;;;;;;0.29;87.81;97188.34;5000970;28;20042;-60
2022/02/01 00:58:36;;;;;;;33.92;22.77;;;;;;;0.28;88.39;97183.31;5002672;28;20038;-59
2022/02/01 01:01:02;;;;;;;36.22;22.45;;;;;;;0.21;88.58;97179.22;5002832;28;20066;-60
2022/02/01 01:03:28;;;;;;;29.75;20.95;;;;;;;0.40;88.87;97184.75;5001453;28;20865;-62
2022/02/01 01:05:53;;;;;;;31.15;21.77;;;;;;;0.45;88.43;97183.75;5001652;28;20030;-62
2022/02/01 01:08:20;;;;;;;31.05;21.70;;;;;;;0.54;87.84;97181.91;5001150;28;20030;-62
2022/02/01 01:10:46;;;;;;;30.40;21.13;;;;;;;0.52;87.56;97192.94;5002490;28;20105;-61
2022/02/01 01:16:21;;;;;;;35.08;23.70;;;;;;;0.59;87.38;97191.13;5002737;28;20045;-61
2022/02/01 01:53:49;;;;;;;35.65;24.33;;;;;;;0.85;87.64;97195.59;5004396;28;20101;-61
2022/02/01 01:56:14;;;;;;;35.50;23.98;;;;;;;0.78;87.31;97181.34;5005893;28;20053;-61
2022/02/01 01:58:40;;;;;;;35.92;23.75;;;;;;;0.83;87.07;97192.28;5004673;28;20227;-60
2022/02/01 02:01:11;;;;;;;36.47;24.63;;;;;;;0.83;87.00;97194.81;5004408;28;20034;-61
2022/02/01 02:03:45;;;;;;;35.35;22.77;;;;;;;0.83;86.58;97197.38;5004666;28;20022;-62
2022/02/01 02:06:13;;;;;;;34.20;23.27;;;;;;;0.88;87.60;97201.53;5005047;28;20061;-62
2022/02/01 02:08:46;;;;;;;35.75;24.00;;;;;;;0.91;87.31;97207.38;5005975;28;20149;-62
2022/02/01 02:12:10;;;;;;;36.25;23.73;;;;;;;0.88;86.83;97209.16;5001380;28;20034;-62
2022/02/01 02:14:21;;;;;;;34.08;23.60;;;;;;;0.90;86.90;97207.41;4999850;28;20352;-62
2022/02/01 02:16:57;;;;;;;35.42;23.40;;;;;;;0.89;86.88;97224.41;5003346;28;20034;-62
2022/02/01 02:19:26;;;;;;;35.97;24.25;;;;;;;0.58;86.90;97150.41;5005325;28;20081;-60
2022/02/01 02:22:03;;;;;;;35.88;25.00;;;;;;;0.51;86.92;97145.47;5005658;28;20316;-59
2022/02/01 02:24:31;;;;;;;36.85;24.23;;;;;;;0.60;86.58;97156.28;4994504;28;20030;-60
2022/02/01 02:26:58;;;;;;;36.85;24.63;;;;;;;0.99;87.29;97207.22;5001639;28;20057;-60
2022/02/01 02:29:24;;;;;;;36.85;24.67;;;;;;;1.01;87.14;97211.41;5004375;28;20030;-61
2022/02/01 02:31:50;;;;;;;33.53;23.75;;;;;;;1.03;87.16;97208.81;5003845;28;20042;-61
2022/02/01 02:34:18;;;;;;;37.75;24.17;;;;;;;0.97;87.23;97206.38;5004159;28;20125;-62
2022/02/01 02:37:01;;;;;;;34.67;22.98;;;;;;;0.67;87.20;97150.19;5003991;28;20038;-63
2022/02/01 02:42:07;;;;;;;34.67;22.75;;;;;;;0.97;87.31;97204.69;5003239;28;20034;-62
2022/02/01 02:47:19;;;;;;;37.55;24.27;;;;;;;0.93;86.93;97207.34;5002493;28;20102;-63
2022/02/01 02:49:44;;;;;;;35.20;23.50;;;;;;;1.03;86.59;97216.47;5002032;28;20034;-63
2022/02/01 02:52:10;;;;;;;38.10;23.92;;;;;;;1.06;86.73;97216.38;5004595;28;20026;-64
2022/02/01 02:54:35;;;;;;;35.17;23.40;;;;;;;1.05;86.98;97217.25;5003773;28;20033;-64
2022/02/01 02:57:05;;;;;;;34.00;22.45;;;;;;;1.05;86.77;97206.22;5002912;28;20033;-63
2022/02/01 02:59:31;;;;;;;37.42;23.88;;;;;;;1.08;87.11;97217.16;5004742;28;20089;-65
2022/02/01 03:01:58;;;;;;;35.38;22.52;;;;;;;1.10;87.11;97222.22;5004395;28;20053;-62
2022/02/01 03:04:25;;;;;;;38.65;23.92;;;;;;;0.70;86.96;97160.31;5004539;28;20062;-63
2022/02/01 03:06:53;;;;;;;32.92;23.60;;;;;;;0.74;86.83;97169.56;5003981;28;20056;-63
2022/02/01 03:09:21;;;;;;;36.60;23.23;;;;;;;0.99;86.94;97215.69;5003107;28;20053;-63
2022/02/01 03:11:49;;;;;;;37.78;25.10;;;;;;;0.89;86.87;97198.09;5001803;28;20038;-62
2022/02/01 03:15:10;;;;;;;33.35;22.42;;;;;;;1.06;86.61;97226.56;5002765;28;20041;-62
2022/02/01 03:17:22;;;;;;;34.45;23.83;;;;;;;1.03;86.79;97232.56;5006350;28;20046;-63
2022/02/01 03:19:52;;;;;;;35.47;23.20;;;;;;;1.01;87.29;97233.47;5004326;28;20022;-62
2022/02/01 03:22:21;;;;;;;32.40;21.58;;;;;;;0.89;86.81;97236.31;5004018;28;20350;-61
2022/02/01 03:24:48;;;;;;;36.08;21.88;;;;;;;0.64;86.32;97202.03;5004168;28;20090;-62
2022/02/01 03:27:13;;;;;;;35.47;22.65;;;;;;;0.77;86.22;97239.97;5004054;28;20037;-61
2022/02/01 03:29:39;;;;;;;34.45;22.75;;;;;;;0.82;85.81;97253.44;5004110;28;20207;-62
2022/02/01 03:32:05;;;;;;;34.63;21.98;;;;;;;0.77;85.68;97261.19;5003332;28;20117;-62
2022/02/01 03:34:31;;;;;;;32.85;22.35;;;;;;;0.77;85.88;97253.56;4992911;28;20315;-62
2022/02/01 03:36:58;;;;;;;32.88;22.60;;;;;;;0.33;85.88;97199.31;5003971;28;20088;-62
2022/02/01 03:39:23;;;;;;;32.53;21.77;;;;;;;0.72;85.20;97259.63;5003970;28;20204;-62
2022/02/01 03:41:51;;;;;;;32.33;21.80;;;;;;;0.69;85.08;97294.47;5002847;28;20038;-62
2022/02/01 03:44:17;;;;;;;37.17;22.55;;;;;;;0.72;85.02;97272.34;5002849;28;20069;-62
2022/02/01 03:46:50;;;;;;;34.55;21.85;;;;;;;0.76;85.07;97276.50;5002798;28;20231;-61
2022/02/01 03:49:15;;;;;;;32.60;21.60;;;;;;;0.78;84.47;97287.50;5002798;28;20080;-62
2022/02/01 03:51:41;;;;;;;33.55;21.58;;;;;;;0.66;84.36;97279.25;5003450;28;20034;-62
2022/02/01 03:54:06;;;;;;;35.47;22.65;;;;;;;0.62;84.97;97281.91;5002365;28;20219;-63
2022/02/01 03:56:32;;;;;;;33.08;22.27;;;;;;;0.68;84.29;97282.63;5000288;28;20042;-62
2022/02/01 03:58:57;;;;;;;37.15;22.85;;;;;;;0.64;83.85;97281.00;4999556;28;20026;-64
2022/02/01 04:01:23;;;;;;;34.35;21.63;;;;;;;0.60;83.86;97273.44;5002386;28;20031;-64
2022/02/01 04:03:48;;;;;;;32.92;20.80;;;;;;;0.68;84.32;97291.94;4998960;28;20117;-63
2022/02/01 04:06:14;;;;;;;33.17;20.75;;;;;;;0.41;82.33;97299.25;5002571;28;20061;-64
2022/02/01 04:08:41;;;;;;;27.83;19.45;;;;;;;0.56;83.11;97300.69;4998096;28;20058;-65
2022/02/01 04:11:06;;;;;;;31.85;20.98;;;;;;;0.51;83.27;97299.91;4998179;28;20093;-63
2022/02/01 04:13:32;;;;;;;32.17;20.83;;;;;;;0.50;83.05;97303.38;5003231;28;20319;-63
2022/02/01 04:15:57;;;;;;;29.38;19.95;;;;;;;0.53;83.16;97303.28;5002176;28;20026;-63
2022/02/01 04:18:23;;;;;;;32.05;20.88;;;;;;;0.47;82.82;97309.34;5003325;28;20019;-63
2022/02/01 04:20:49;;;;;;;30.92;20.80;;;;;;;0.51;83.80;97300.78;5001136;28;20026;-62
2022/02/01 04:23:14;;;;;;;30.25;20.23;;;;;;;0.47;83.53;97301.72;5001523;28;20018;-63
2022/02/01 04:25:40;;;;;;;32.40;20.70;;;;;;;0.40;83.12;97317.13;5002179;28;20035;-63
2022/02/01 04:28:05;;;;;;;27.15;19.80;;;;;;;0.50;83.50;97311.81;5002046;28;20250;-63
2022/02/01 04:30:31;;;;;;;30.77;19.75;;;;;;;0.42;82.38;97320.50;5000676;28;20033;-62
2022/02/01 04:32:57;;;;;;;27.05;17.58;;;;;;;0.44;82.64;97321.28;5000311;28;20227;-63
2022/02/01 04:35:29;;;;;;;27.50;18.70;;;;;;;0.05;82.82;97255.84;5001766;28;20295;-61
2022/02/01 04:37:57;;;;;;;30.60;18.02;;;;;;;0.40;82.79;97315.44;5000164;28;20042;-62
2022/02/01 04:40:24;;;;;;;27.50;17.35;;;;;;;0.32;82.32;97328.28;5002523;28;20095;-62
2022/02/01 04:42:51;;;;;;;28.73;18.08;;;;;;;0.33;82.47;97324.88;5001326;28;20034;-61
2022/02/01 04:45:20;;;;;;;24.33;17.17;;;;;;;0.27;81.75;97347.06;5001672;28;20042;-61
2022/02/01 04:47:46;;;;;;;26.65;17.40;;;;;;;0.37;82.27;97332.44;5002720;28;20038;-62
2022/02/01 04:50:18;;;;;;;28.73;16.02;;;;;;;0.38;82.02;97326.50;5002515;28;20045;-61
2022/02/01 04:52:46;;;;;;;20.58;14.52;;;;;;;0.37;81.12;97335.84;5000966;28;20355;-61
2022/02/01 04:55:12;;;;;;;21.73;15.02;;;;;;;0.37;82.17;97335.84;5004049;28;20026;-63
2022/02/01 04:57:47;;;;;;;23.25;15.02;;;;;;;0.39;81.45;97341.75;5006260;28;20319;-63
2022/02/01 05:00:13;;;;;;;20.10;13.85;;;;;;;0.36;81.20;97336.72;5006339;28;20057;-65
2022/02/01 05:02:39;;;;;;;23.50;14.18;;;;;;;0.36;80.98;97346.91;5003734;28;20042;-64
2022/02/01 05:05:05;;;;;;;21.88;14.30;;;;;;;0.34;81.52;97352.03;5001819;28;20027;-64
2022/02/01 05:07:30;;;;;;;19.48;13.20;;;;;;;0.40;80.74;97356.16;5004633;28;20247;-65
2022/02/01 05:09:58;;;;;;;19.10;12.45;;;;;;;0.42;80.61;97359.50;5021489;28;20030;-63
2022/02/01 05:12:24;;;;;;;16.92;12.27;;;;;;;0.40;80.60;97345.97;5006004;28;20033;-63
2022/02/01 05:14:50;;;;;;;20.25;12.82;;;;;;;0.45;80.46;97363.69;5006210;28;20038;-62
2022/02/01 05:17:17;;;;;;;18.98;12.35;;;;;;;0.28;79.19;97366.56;5004391;28;20042;-65
2022/02/01 05:22:12;;;;;;;18.85;12.05;;;;;;;0.35;80.33;97375.75;5006091;28;20030;-60
2022/02/01 05:24:39;;;;;;;17.60;11.48;;;;;;;0.33;80.84;97367.31;5004906;28;20093;-60
2022/02/01 05:27:09;;;;;;;18.35;12.25;;;;;;;0.42;80.94;97377.31;5003806;28;20045;-60
2022/02/01 05:29:36;;;;;;;17.83;12.18;;;;;;;0.42;81.09;97362.06;5003484;28;20302;-61
2022/02/01 05:32:10;;;;;;;17.48;11.77;;;;;;;0.48;80.70;97372.09;5004300;28;20038;-60
2022/02/01 05:34:35;;;;;;;17.42;12.25;;;;;;;0.54;79.93;97372.88;5003619;28;20097;-60
2022/02/01 05:37:01;;;;;;;19.95;13.18;;;;;;;0.49;79.35;97376.34;5002757;28;20049;-61
2022/02/01 05:39:27;;;;;;;17.48;11.70;;;;;;;0.56;79.80;97394.06;5005393;28;20042;-61
2022/02/01 05:41:55;;;;;;;17.58;11.98;;;;;;;0.48;80.24;97384.84;5004716;28;20315;-61
2022/02/01 05:44:21;;;;;;;21.17;12.00;;;;;;;0.33;79.08;97382.59;5004992;28;20060;-61
2022/02/01 05:46:46;;;;;;;16.55;11.82;;;;;;;0.30;79.86;97388.56;5003932;28;20251;-61
2022/02/01 05:49:12;;;;;;;18.73;12.13;;;;;;;0.30;79.66;97393.66;5004552;28;20030;-60
2022/02/01 05:51:38;;;;;;;20.02;12.00;;;;;;;0.35;80.00;97398.66;5004731;28;20312;-60
2022/02/01 05:54:04;;;;;;;17.63;11.27;;;;;;;0.14;79.00;97395.66;5004984;28;20039;-60
2022/02/01 05:56:30;;;;;;;17.67;12.55;;;;;;;0.30;79.28;97400.44;5003819;28;20085;-61
2022/02/01 05:58:56;;;;;;;19.45;12.82;;;;;;;0.43;80.76;97406.16;4994845;28;20038;-61
2022/02/01 06:01:21;;;;;;;19.75;12.32;;;;;;;0.46;79.84;97403.59;5005164;28;20037;-57
2022/02/01 06:03:48;;;;;;;18.55;12.52;;;;;;;0.32;79.10;97394.47;5003651;28;20267;-57
2022/02/01 06:06:14;;;;;;;25.50;14.05;;;;;;;0.33;78.52;97413.97;5004316;28;20284;-58
2022/02/01 06:08:39;;;;;;;22.02;14.40;;;;;;;0.34;79.50;97432.63;5005105;28;20054;-58
2022/02/01 06:11:05;;;;;;;25.63;14.15;;;;;;;0.22;79.09;97428.59;5005099;28;20030;-58
2022/02/01 06:13:35;;;;;;;26.60;15.52;;;;;;;0.17;79.16;97433.75;5003718;28;20231;-60
2022/02/01 06:16:01;;;;;;;22.33;14.63;;;;;;;0.23;79.68;97432.81;5004482;28;20047;-58
2022/02/01 06:18:26;;;;;;;23.55;15.13;;;;;;;0.21;79.87;97449.81;5019702;28;20034;-59
2022/02/01 06:20:52;;;;;;;22.33;15.35;;;;;;;0.29;80.72;97447.16;5000201;28;20259;-62
2022/02/01 06:23:18;;;;;;;20.52;14.32;;;;;;;0.28;80.21;97450.56;5001244;28;20056;-66
2022/02/01 06:28:10;;;;;;;23.30;15.60;;;;;;;0.25;80.59;97453.97;5004752;28;20038;-60
2022/02/01 06:30:35;;;;;;;24.65;15.75;;;;;;;0.22;80.25;97460.84;5003586;28;20033;-60
2022/02/01 06:33:01;;;;;;;25.65;15.50;;;;;;;0.33;80.32;97469.16;5004057;28;20034;-60
2022/02/01 06:35:29;;;;;;;22.52;15.88;;;;;;;-0.06;80.24;97390.88;5001491;28;20030;-60
2022/02/01 06:37:55;;;;;;;25.08;15.32;;;;;;;0.40;80.04;97459.69;5004327;28;20042;-60
2022/02/01 06:40:20;;;;;;;24.75;14.85;;;;;;;0.38;78.95;97469.88;5003864;28;20235;-60
2022/02/01 06:42:46;;;;;;;24.27;15.65;;;;;;;0.39;79.90;97476.66;5002691;28;20026;-60
2022/02/01 06:45:12;;;;;;;22.08;14.48;;;;;;;0.56;79.60;97483.19;5004511;28;20227;-61
2022/02/01 06:47:37;;;;;;;21.42;15.15;;;;;;;0.59;79.52;97480.59;5002000;28;20093;-60
2022/02/01 06:50:04;;;;;;;25.58;14.88;;;;;;;0.48;79.36;97484.13;5002888;28;20319;-60
2022/02/01 06:52:31;;;;;;;22.52;14.82;;;;;;;0.35;79.27;97464.84;5004320;28;20096;-60
2022/02/01 06:55:01;;;;;;;21.50;14.85;;;;;;;0.50;78.61;97500.25;5001091;28;20034;-60
2022/02/01 06:57:26;;;;;;;23.48;15.02;;;;;;;0.43;78.36;97498.69;5003773;28;20038;-61
2022/02/01 06:59:52;;;;;;;25.35;15.95;;;;;;;0.43;78.55;97508.00;5003719;28;20097;-60
2022/02/01 07:02:18;;;;;;;20.23;13.27;;;;;;;0.31;78.12;97497.19;5004139;28;20022;-60
2022/02/01 07:04:43;;;;;;;25.73;16.45;;;;;;;0.33;78.97;97507.34;5003316;28;20046;-59
2022/02/01 07:07:09;;;;;;;21.45;14.07;;;;;;;0.42;79.36;97509.72;5004294;28;20049;-62
2022/02/01 07:09:36;;;;;;;25.25;14.13;;;;;;;0.27;79.13;97513.34;5002142;28;20106;-61
2022/02/01 07:12:01;;;;;;;20.13;13.90;;;;;;;0.38;79.85;97510.63;5003481;28;20026;-61
2022/02/01 07:14:27;;;;;;;21.42;14.70;;;;;;;0.43;79.38;97525.81;5001918;28;20319;-61
2022/02/01 07:16:52;;;;;;;23.25;14.70;;;;;;;0.38;79.04;97523.34;5002562;28;20125;-62
2022/02/01 07:19:18;;;;;;;25.48;15.38;;;;;;;0.55;78.88;97524.81;5002809;28;20030;-60
2022/02/01 07:21:44;;;;;;;22.83;15.32;;;;;;;0.52;79.22;97526.50;5002608;28;20061;-61
2022/02/01 07:24:15;;;;;;;22.50;14.98;;;;;;;0.55;78.57;97535.00;5001761;28;20070;-60
2022/02/01 07:26:42;;;;;;;23.67;15.90;;;;;;;0.67;79.04;97529.66;5002303;28;20089;-61
2022/02/01 07:29:08;;;;;;;26.63;17.00;;;;;;;0.66;78.54;97533.09;5003506;28;20068;-62
2022/02/01 07:31:33;;;;;;;22.50;16.20;;;;;;;0.75;78.86;97534.66;5003305;28;20042;-61
2022/02/01 07:33:59;;;;;;;29.73;18.38;;;;;;;0.78;79.44;97534.59;5003157;28;20097;-62
2022/02/01 07:36:25;;;;;;;31.25;18.65;;;;;;;0.71;78.41;97530.47;5001327;28;20349;-61
2022/02/01 07:38:50;;;;;;;32.10;19.05;;;;;;;0.78;79.33;97537.97;5002576;28;20042;-62
2022/02/01 07:41:16;;;;;;;29.75;19.35;;;;;;;0.81;79.62;97530.31;5001821;28;20026;-61
2022/02/01 07:43:41;;;;;;;28.70;18.05;;;;;;;0.91;79.77;97532.66;5001037;28;20034;-61
2022/02/01 07:46:14;;;;;;;36.40;21.40;;;;;;;0.84;79.50;97542.13;5002291;28;20030;-60
2022/02/01 07:48:40;;;;;;;39.47;23.73;;;;;;;0.78;79.73;97542.25;5002246;28;20200;-62
2022/02/01 07:51:05;;;;;;;40.00;24.77;;;;;;;0.76;79.28;97547.34;5001590;28;20037;-62
2022/02/01 07:53:31;;;;;;;38.95;23.25;;;;;;;0.74;80.18;97544.00;5001367;28;20272;-62
2022/02/01 07:55:56;;;;;;;38.13;23.08;;;;;;;0.81;80.27;97555.78;5001915;28;20049;-61
2022/02/01 07:58:22;;;;;;;43.63;25.40;;;;;;;0.83;80.68;97550.66;5001857;28;20041;-62
2022/02/01 08:00:47;;;;;;;44.70;24.85;;;;;;;0.77;81.04;97548.19;5002072;28;20042;-63
2022/02/01 08:03:13;;;;;;;66.10;39.40;;;;;;;0.85;80.73;97559.94;5000972;28;20247;-62
2022/02/01 08:05:39;;;;;;;46.85;27.75;;;;;;;0.91;81.18;97558.97;4999730;28;20026;-61
2022/02/01 08:08:04;;;;;;;48.90;28.30;;;;;;;0.92;81.45;97557.28;5001789;28;20049;-62
2022/02/01 08:10:42;;;;;;;43.35;26.02;;;;;;;0.90;81.03;97553.91;5001940;28;20315;-61
2022/02/01 08:21:03;;;;;;;41.67;24.25;;;;;;;0.97;81.29;97565.69;5000651;28;20414;-62
2022/02/01 08:23:30;;;;;;;45.13;25.95;;;;;;;0.93;81.67;97569.19;5030850;28;20041;-62
2022/02/01 08:25:58;;;;;;;42.97;25.00;;;;;;;0.67;81.98;97514.38;4999681;28;20117;-60
2022/02/01 08:28:23;;;;;;;42.10;24.95;;;;;;;1.02;82.01;97581.75;4999977;28;20034;-62
2022/02/01 08:30:54;;;;;;;44.22;25.23;;;;;;;1.03;82.21;97578.34;5000786;28;20354;-63
2022/02/01 08:33:20;;;;;;;40.83;23.13;;;;;;;1.11;82.43;97581.59;5001654;28;20076;-61
2022/02/01 08:35:45;;;;;;;41.47;23.05;;;;;;;1.12;81.70;97575.59;5001144;28;20025;-62
2022/02/01 08:38:11;;;;;;;41.35;24.90;;;;;;;1.16;82.00;97573.84;5001301;28;20038;-60
2022/02/01 08:40:38;;;;;;;42.65;23.70;;;;;;;1.20;81.66;97570.41;5001363;28;20109;-61
2022/02/01 08:43:04;;;;;;;41.00;24.83;;;;;;;1.22;81.76;97583.09;4997878;28;20038;-61
2022/02/01 08:45:30;;;;;;;41.80;23.80;;;;;;;1.20;81.38;97573.78;5001334;28;20031;-61
2022/02/01 08:47:57;;;;;;;44.40;23.55;;;;;;;0.92;81.33;97513.97;5001630;28;20042;-62
2022/02/01 08:50:29;;;;;;;39.38;22.38;;;;;;;0.94;81.73;97519.88;4998039;28;20038;-62
2022/02/01 08:53:10;;;;;;;40.55;22.23;;;;;;;1.33;81.42;97571.00;4998291;28;20034;-62
2022/02/01 08:55:50;;;;;;;45.58;24.13;;;;;;;1.21;81.11;97554.22;5000708;28;20343;-61
2022/02/01 08:58:16;;;;;;;41.42;21.67;;;;;;;1.34;81.28;97567.56;4999752;28;20018;-61
2022/02/01 09:00:41;;;;;;;38.58;22.83;;;;;;;1.29;80.51;97569.38;5001909;28;20038;-62
2022/02/01 09:03:07;;;;;;;44.42;22.45;;;;;;;1.23;79.67;97565.22;4997063;28;20362;-60
2022/02/01 09:05:34;;;;;;;40.10;22.02;;;;;;;1.28;80.39;97571.06;5000403;28;20041;-61
2022/02/01 09:08:04;;;;;;;34.60;20.60;;;;;;;1.30;80.47;97561.69;5001717;28;20065;-59
2022/02/01 09:10:30;;;;;;;35.92;21.10;;;;;;;1.34;80.12;97559.91;4996417;28;20058;-59
2022/02/01 09:12:56;;;;;;;35.50;22.05;;;;;;;1.32;79.86;97564.22;4992829;28;20038;-57
2022/02/01 09:15:22;;;;;;;38.90;22.23;;;;;;;1.25;80.19;97565.19;5001325;28;20041;-58
2022/02/01 09:17:48;;;;;;;36.97;21.00;;;;;;;1.25;80.03;97573.69;5031867;28;20053;-58
2022/02/01 09:20:14;;;;;;;36.92;22.35;;;;;;;1.24;80.09;97564.38;5001996;28;20038;-58
2022/02/01 09:22:40;;;;;;;36.85;21.05;;;;;;;1.29;80.24;97565.09;5000696;28;20034;-59
2022/02/01 09:25:06;;;;;;;72.65;40.47;;;;;;;1.29;80.64;97570.22;5001481;28;20030;-58
2022/02/01 09:27:31;;;;;;;41.58;21.92;;;;;;;1.39;80.71;97560.69;5001567;28;20327;-58
2022/02/01 09:29:57;;;;;;;33.95;20.58;;;;;;;1.45;80.87;97565.66;5000660;28;20061;-57
2022/02/01 09:32:24;;;;;;;38.50;21.52;;;;;;;1.41;80.70;97570.84;5001403;28;20093;-57
2022/02/01 09:34:51;;;;;;;31.20;19.02;;;;;;;1.11;80.84;97553.56;5000079;28;20030;-57
2022/02/01 09:37:16;;;;;;;42.22;22.17;;;;;;;1.36;80.35;97581.97;5001511;28;20038;-56
2022/02/01 09:39:42;;;;;;;35.53;20.25;;;;;;;1.38;80.60;97589.59;5000601;28;20035;-56
2022/02/01 09:42:08;;;;;;;33.08;19.38;;;;;;;1.37;79.66;97585.38;5003360;28;20110;-56
2022/02/01 09:44:34;;;;;;;30.67;17.30;;;;;;;1.07;80.32;97571.47;5004101;28;20030;-58
2022/02/01 09:46:59;;;;;;;33.92;17.98;;;;;;;1.15;79.69;97573.00;5005097;28;20034;-56
2022/02/01 09:49:25;;;;;;;32.13;18.33;;;;;;;1.23;79.89;97588.19;5002379;28;20034;-57
2022/02/01 09:51:54;;;;;;;32.67;18.50;;;;;;;1.25;79.51;97581.31;5004127;28;20027;-57
2022/02/01 09:54:28;;;;;;;29.55;17.70;;;;;;;1.24;79.32;97582.22;5003346;28;20045;-57
2022/02/01 09:56:54;;;;;;;26.38;16.52;;;;;;;1.27;80.09;97591.50;5004859;28;20052;-58
2022/02/01 09:59:30;;;;;;;33.78;17.00;;;;;;;0.93;79.27;97525.84;5004831;28;20038;-58
2022/02/01 10:01:56;;;;;;;30.83;17.38;;;;;;;1.34;79.80;97583.72;5003525;28;20034;-58
2022/02/01 10:04:27;;;;;;;28.70;16.23;;;;;;;1.00;77.81;97525.72;5004859;28;20102;-58
2022/02/01 10:07:03;;;;;;;29.05;15.38;;;;;;;1.51;78.57;97575.75;5004209;28;20073;-61
2022/02/01 10:09:28;;;;;;;25.50;15.20;;;;;;;1.41;78.26;97579.34;5004927;28;20041;-59
2022/02/01 10:11:54;;;;;;;28.02;16.00;;;;;;;1.38;78.72;97580.25;5004801;28;20026;-59
2022/02/01 10:14:26;;;;;;;26.95;15.43;;;;;;;1.37;77.88;97572.63;5004594;28;20038;-60
2022/02/01 10:16:54;;;;;;;30.42;15.93;;;;;;;1.39;77.99;97588.72;5004413;28;20056;-60
2022/02/01 10:19:22;;;;;;;25.63;15.02;;;;;;;1.46;78.35;97582.63;5018220;28;20052;-59
2022/02/01 10:21:58;;;;;;;26.55;15.57;;;;;;;1.10;77.85;97543.38;5004769;28;20042;-61
2022/02/01 10:24:33;;;;;;;27.15;14.57;;;;;;;1.38;77.68;97585.34;5004771;28;20223;-59
2022/02/01 10:27:06;;;;;;;27.10;14.18;;;;;;;1.23;77.32;97585.63;5004413;28;20092;-58
2022/02/01 10:29:33;;;;;;;24.20;14.50;;;;;;;1.20;77.58;97586.50;5002571;28;20093;-59
2022/02/01 10:32:00;;;;;;;25.63;14.48;;;;;;;1.12;77.46;97580.72;5003976;28;20030;-61
2022/02/01 10:36:54;;;;;;;27.42;16.38;;;;;;;1.33;78.25;97583.75;5001024;28;20045;-60
2022/02/01 10:39:26;;;;;;;25.17;16.55;;;;;;;1.43;78.82;97586.97;5004215;28;20315;-62
2022/02/01 10:41:56;;;;;;;24.60;16.92;;;;;;;1.29;78.95;97559.19;5001842;28;20038;-59
2022/02/01 10:44:23;;;;;;;31.52;18.30;;;;;;;1.46;79.08;97582.63;5003310;28;20030;-59
2022/02/01 10:46:53;;;;;;;28.88;18.38;;;;;;;1.48;78.24;97590.25;5001052;28;20039;-59
2022/02/01 10:49:32;;;;;;;28.80;17.90;;;;;;;1.18;79.58;97514.34;5002191;28;20038;-60
2022/02/01 10:52:13;;;;;;;25.88;16.55;;;;;;;1.41;77.96;97599.75;5003806;28;20037;-60
2022/02/01 10:54:42;;;;;;;30.05;16.75;;;;;;;1.47;78.41;97589.44;5003606;28;20136;-59
2022/02/01 10:57:10;;;;;;;25.83;16.10;;;;;;;1.18;77.80;97536.41;5003777;28;20033;-62
2022/02/01 10:59:36;;;;;;;24.33;15.82;;;;;;;1.48;78.55;97582.59;5002723;28;20030;-62
2022/02/01 11:02:03;;;;;;;28.75;16.85;;;;;;;1.53;78.94;97602.06;5003085;28;20053;-59
2022/02/01 11:04:31;;;;;;;22.42;14.85;;;;;;;1.52;78.57;97602.09;5004312;28;20319;-60
2022/02/01 11:06:58;;;;;;;22.20;14.25;;;;;;;1.55;78.27;97605.44;5002545;28;20030;-59
2022/02/01 11:09:29;;;;;;;21.20;14.23;;;;;;;1.43;78.72;97592.91;5002457;28;20101;-59
2022/02/01 11:11:57;;;;;;;25.00;13.38;;;;;;;1.42;78.06;97610.78;5002635;28;20042;-60
2022/02/01 11:14:26;;;;;;;23.98;13.25;;;;;;;1.40;78.82;97602.31;5002407;28;20050;-59
2022/02/01 11:17:12;;;;;;;22.42;12.95;;;;;;;1.14;78.61;97550.09;5004012;28;20034;-60
2022/02/01 11:19:45;;;;;;;19.15;12.52;;;;;;;1.37;78.52;97611.72;5002385;28;20026;-60
2022/02/01 11:22:26;;;;;;;18.50;12.38;;;;;;;1.38;79.14;97603.19;5002975;28;20088;-60
2022/02/01 11:25:25;;;;;;;21.88;13.65;;;;;;;1.53;79.06;97606.31;5003876;28;20026;-60
2022/02/01 11:28:09;;;;;;;17.77;12.00;;;;;;;1.58;79.64;97601.97;5002714;28;20034;-60
2022/02/01 11:30:37;;;;;;;22.85;13.10;;;;;;;1.08;78.10;97555.31;5004334;28;20034;-61
2022/02/01 11:33:04;;;;;;;19.63;12.75;;;;;;;1.51;79.42;97615.69;5017879;28;20061;-59
2022/02/01 11:35:30;;;;;;;20.58;12.38;;;;;;;1.37;78.34;97615.97;5002301;28;20049;-61
2022/02/01 11:38:02;;;;;;;20.75;12.32;;;;;;;1.39;78.92;97621.88;5004204;28;20319;-61
2022/02/01 11:40:32;;;;;;;;;;;;;;;1.43;78.74;97617.56;5003582;28;20192;-64
2022/02/01 11:43:00;;;;;;;19.25;12.00;;;;;;;1.45;78.92;97621.75;5002718;28;20102;-60
2022/02/01 11:45:35;;;;;;;16.60;10.68;;;;;;;1.34;78.32;97608.34;5002956;28;20045;-62
2022/02/01 11:48:03;;;;;;;21.58;11.07;;;;;;;1.38;78.33;97620.19;5004222;28;20161;-59
2022/02/01 11:50:43;;;;;;;17.42;11.05;;;;;;;1.28;78.54;97616.97;5001806;28;20023;-60
2022/02/01 11:53:19;;;;;;;14.88;10.55;;;;;;;1.27;77.75;97620.41;5001794;28;20042;-59
2022/02/01 11:55:47;;;;;;;16.10;10.23;;;;;;;0.98;78.59;97565.69;5003237;28;20034;-59
2022/02/01 11:58:13;;;;;;;15.07;11.05;;;;;;;1.26;77.65;97620.44;5003147;28;20030;-59
2022/02/01 12:00:41;;;;;;;14.50;10.98;;;;;;;1.33;78.51;97627.09;5002167;28;20026;-60
2022/02/01 12:03:06;;;;;;;17.02;10.07;;;;;;;1.20;77.75;97632.41;5001715;28;20302;-59
2022/02/01 12:05:35;;;;;;;16.85;10.40;;;;;;;1.01;79.14;97564.75;5003521;28;20023;-60
2022/02/01 12:08:13;;;;;;;16.23;10.25;;;;;;;0.97;77.91;97579.28;5003653;28;20030;-59
2022/02/01 12:10:52;;;;;;;16.30;9.40;;;;;;;1.17;76.94;97619.72;5002710;28;20168;-59
2022/02/01 12:13:23;;;;;;;15.88;10.60;;;;;;;1.00;77.39;97588.59;5002164;28;20041;-60
2022/02/01 12:15:52;;;;;;;15.40;10.37;;;;;;;1.08;78.08;97589.28;5001986;28;20034;-59
2022/02/01 12:18:30;;;;;;;14.70;10.13;;;;;;;1.35;77.14;97643.19;4999917;28;20030;-59
2022/02/01 12:21:14;;;;;;;15.07;9.43;;;;;;;1.29;76.69;97644.16;4987183;28;20042;-59
2022/02/01 12:23:46;;;;;;;13.48;9.07;;;;;;;0.91;77.17;97573.44;5002982;28;20042;-60
2022/02/01 12:26:41;;;;;;;16.98;9.90;;;;;;;1.37;76.87;97661.88;5000520;28;20384;-60
2022/02/01 12:29:11;;;;;;;12.90;8.27;;;;;;;1.40;76.46;97643.09;5000830;28;20042;-61
2022/02/01 12:31:39;;;;;;;14.35;9.25;;;;;;;1.44;76.74;97658.34;5001711;28;20034;-61
2022/02/01 12:34:11;;;;;;;16.45;9.27;;;;;;;1.34;76.03;97644.91;5002670;28;20038;-60
2022/02/01 12:36:39;;;;;;;13.93;8.68;;;;;;;1.20;76.32;97649.41;5003504;28;20108;-61
2022/02/01 12:39:10;;;;;;;13.90;8.90;;;;;;;1.23;76.54;97658.69;5002132;28;20046;-60
2022/02/01 12:41:43;;;;;;;15.38;9.02;;;;;;;1.18;76.48;97668.97;5003320;28;20038;-60
2022/02/01 12:46:53;;;;;;;13.88;8.50;;;;;;;1.16;76.38;97668.19;5003052;28;20026;-60
2022/02/01 12:49:43;;;;;;;12.35;7.90;;;;;;;0.99;76.91;97686.28;5002202;28;20034;-61
2022/02/01 12:52:26;;;;;;;12.30;8.35;;;;;;;0.92;76.63;97688.09;5000793;28;20034;-60
2022/02/01 12:55:09;;;;;;;12.07;7.95;;;;;;;0.73;76.57;97695.16;5001961;28;20030;-60
2022/02/01 12:57:36;;;;;;;15.25;8.88;;;;;;;0.93;76.67;97689.78;5001791;28;20330;-63
2022/02/01 13:00:23;;;;;;;12.63;7.90;;;;;;;0.80;75.65;97696.75;5001815;28;20057;-63
2022/02/01 13:02:55;;;;;;;12.13;7.25;;;;;;;0.98;76.25;97695.66;5000667;28;20038;-64